createdAt,value
2023-04-05T00:01:20.154Z,0.62
2023-04-05T00:06:26.745Z,0.52
2023-04-05T00:11:33.037Z,0.45
2023-04-05T00:16:36.523Z,0.35
2023-04-05T00:21:40.650Z,0.30
2023-04-05T00:26:46.513Z,0.23
2023-04-05T00:31:49.540Z,0.19
2023-04-05T00:36:53.067Z,0.20
2023-04-05T00:41:56.286Z,0.15
2023-04-05T00:46:59.287Z,0.15
2023-04-05T00:52:02.668Z,0.17
2023-04-05T00:57:07.154Z,0.18
2023-04-05T01:02:39.421Z,0.15
2023-04-05T01:07:58.878Z,0.13
2023-04-05T01:13:02.354Z,0.10
2023-04-05T01:18:06.064Z,0.03
2023-04-05T01:23:54.768Z,-0.03
2023-04-05T01:29:50.817Z,-0.10
2023-04-05T01:35:08.336Z,-0.11
2023-04-05T01:40:11.908Z,-0.11
2023-04-05T01:45:14.911Z,-0.10
2023-04-05T01:50:18.070Z,-0.13
2023-04-05T01:55:20.969Z,-0.16
2023-04-05T02:00:24.500Z,-0.20
2023-04-05T02:05:27.293Z,-0.22
2023-04-05T02:10:30.428Z,-0.25
2023-04-05T02:15:34.140Z,-0.32
2023-04-05T02:20:37.438Z,-0.35
2023-04-05T02:25:40.387Z,-0.41
2023-04-05T02:30:43.496Z,-0.47
2023-04-05T02:35:50.475Z,-0.52
2023-04-05T02:40:53.477Z,-0.58
2023-04-05T02:45:56.483Z,-0.63
2023-04-05T02:50:59.528Z,-0.68
2023-04-05T02:56:02.608Z,-0.70
2023-04-05T03:01:07.573Z,-0.72
2023-04-05T03:06:10.776Z,-0.77
2023-04-05T03:11:14.153Z,-0.78
2023-04-05T03:16:17.477Z,-0.82
2023-04-05T03:21:21.365Z,-0.87
2023-04-05T03:26:24.619Z,-0.93
2023-04-05T03:31:30.457Z,-0.97
2023-04-05T03:36:42.051Z,-0.97
2023-04-05T03:41:45.032Z,-1.01
2023-04-05T03:46:48.124Z,-1.04
2023-04-05T03:51:51.100Z,-1.05
2023-04-05T03:56:54.207Z,-1.09
2023-04-05T04:01:57.187Z,-1.14
2023-04-05T04:07:00.198Z,-1.21
2023-04-05T04:12:04.015Z,-1.27
2023-04-05T04:17:07.595Z,-1.32
2023-04-05T04:22:10.543Z,-1.36
2023-04-05T04:27:13.567Z,-1.40
2023-04-05T04:32:17.467Z,-1.39
2023-04-05T04:37:22.667Z,-1.40
2023-04-05T04:42:26.437Z,-1.39
2023-04-05T04:47:30.722Z,-1.32
2023-04-05T04:52:34.399Z,-1.28
2023-04-05T04:57:37.454Z,-1.23
2023-04-05T05:02:42.278Z,-1.16
2023-04-05T05:07:45.337Z,-1.06
2023-04-05T05:12:51.907Z,-0.94
2023-04-05T05:17:58.404Z,-0.77
2023-04-05T05:23:02.794Z,-0.63
2023-04-05T05:28:05.777Z,-0.42
2023-04-05T05:33:08.893Z,-0.25
2023-04-05T05:38:13.780Z,-0.05
2023-04-05T05:43:16.744Z,0.09
2023-04-05T05:48:20.939Z,0.25
2023-04-05T05:53:24.037Z,0.41
2023-04-05T05:58:26.956Z,0.55
2023-04-05T06:03:30.599Z,0.72
2023-04-05T06:08:33.550Z,0.95
2023-04-05T06:13:37.983Z,1.08
2023-04-05T06:18:42.219Z,1.26
2023-04-05T06:23:45.310Z,1.45
2023-04-05T06:28:48.496Z,1.57
2023-04-05T06:33:51.491Z,1.68
2023-04-05T06:38:54.489Z,1.83
2023-04-05T06:43:57.543Z,2.00
2023-04-05T06:49:03.159Z,2.08
2023-04-05T06:54:07.093Z,2.18
2023-04-05T06:59:10.155Z,2.28
2023-04-05T07:04:13.287Z,2.36
2023-04-05T07:09:16.342Z,2.57
2023-04-05T07:14:19.308Z,2.74
2023-04-05T07:19:22.516Z,2.75
2023-04-05T07:24:25.751Z,3.09
2023-04-05T07:29:28.673Z,3.34
2023-04-05T07:34:31.603Z,3.28
2023-04-05T07:39:37.596Z,3.45
2023-04-05T07:44:40.708Z,3.89
2023-04-05T07:49:43.856Z,5.37
2023-04-05T07:54:46.962Z,6.47
2023-04-05T07:59:53.137Z,6.93
2023-04-05T08:04:56.258Z,6.85
2023-04-05T08:10:00.382Z,6.82
2023-04-05T08:15:04.232Z,6.71
2023-04-05T08:20:08.718Z,6.89
2023-04-05T08:25:11.893Z,7.51
2023-04-05T08:30:16.540Z,8.33
2023-04-05T08:35:19.543Z,8.19
2023-04-05T08:40:26.638Z,7.94
2023-04-05T08:45:31.663Z,7.96
2023-04-05T08:50:34.449Z,8.10
2023-04-05T08:55:40.291Z,8.30
2023-04-05T09:00:44.024Z,8.06
2023-04-05T09:05:51.389Z,8.31
2023-04-05T09:10:54.456Z,8.66
2023-04-05T09:15:58.142Z,9.07
2023-04-05T09:21:05.990Z,9.62
2023-04-05T09:26:19.582Z,10.33
2023-04-05T09:31:37.017Z,11.10
2023-04-05T09:36:45.770Z,11.93
2023-04-05T09:42:13.225Z,11.85
2023-04-05T09:47:35.265Z,12.30
2023-04-05T09:52:38.368Z,12.84
2023-04-05T09:57:43.833Z,13.00
2023-04-05T10:02:47.640Z,13.39
2023-04-05T10:07:52.061Z,12.90
2023-04-05T10:12:55.734Z,12.60
2023-04-05T10:18:17.692Z,12.18
2023-04-05T10:23:35.070Z,11.03
2023-04-05T10:28:43.791Z,10.31
2023-04-05T10:33:51.725Z,9.65
2023-04-05T10:39:28.692Z,9.72
2023-04-05T10:44:34.156Z,10.44
2023-04-05T10:49:52.149Z,11.50
2023-04-05T10:54:57.388Z,12.49
2023-04-05T11:00:01.646Z,13.10
2023-04-05T11:05:27.830Z,13.94
2023-04-05T11:10:32.180Z,15.00
2023-04-05T11:15:36.634Z,15.17
2023-04-05T11:20:53.325Z,15.52
2023-04-05T11:26:06.725Z,15.61
2023-04-05T11:31:22.876Z,15.66
2023-04-05T11:36:47.926Z,15.63
2023-04-05T11:42:04.060Z,15.76
2023-04-05T11:47:08.169Z,15.16
2023-04-05T11:52:19.970Z,15.24
2023-04-05T11:57:24.043Z,14.99
2023-04-05T12:02:27.094Z,15.05
2023-04-05T12:07:32.768Z,15.45
2023-04-05T12:12:41.587Z,15.96
2023-04-05T12:17:50.901Z,15.41
2023-04-05T12:22:56.348Z,15.25
2023-04-05T12:28:08.435Z,15.18
2023-04-05T12:33:13.791Z,15.26
2023-04-05T12:38:17.661Z,14.76
2023-04-05T12:43:20.882Z,14.68
2023-04-05T12:48:26.069Z,15.12
2023-04-05T12:53:29.177Z,15.04
2023-04-05T12:58:40.131Z,15.20
2023-04-05T13:03:48.385Z,14.98
2023-04-05T13:08:52.833Z,14.40
2023-04-05T13:13:55.950Z,13.92
2023-04-05T13:18:58.923Z,13.68
2023-04-05T13:24:02.040Z,13.37
2023-04-05T13:29:05.372Z,13.46
2023-04-05T13:34:08.688Z,13.22
2023-04-05T13:39:11.656Z,13.29
2023-04-05T13:44:14.652Z,13.48
2023-04-05T13:49:17.613Z,13.13
2023-04-05T13:54:20.558Z,12.96
2023-04-05T13:59:23.622Z,13.07
2023-04-05T14:04:26.674Z,13.05
2023-04-05T14:09:30.493Z,13.38
2023-04-05T14:14:33.437Z,13.82
2023-04-05T14:19:36.534Z,13.77
2023-04-05T14:24:39.572Z,13.24
2023-04-05T14:29:45.672Z,13.05
2023-04-05T14:34:48.739Z,13.64
2023-04-05T14:39:51.684Z,14.14
2023-04-05T14:44:54.693Z,13.88
2023-04-05T14:49:57.926Z,13.34
2023-04-05T14:55:01.173Z,13.52
2023-04-05T15:00:04.823Z,13.24
2023-04-05T15:05:09.650Z,13.29
2023-04-05T15:10:12.696Z,13.01
2023-04-05T15:15:16.017Z,12.69
2023-04-05T15:20:19.270Z,12.18
2023-04-05T15:25:22.198Z,11.87
2023-04-05T15:30:25.579Z,11.69
2023-04-05T15:35:28.687Z,11.68
2023-04-05T15:40:31.844Z,11.69
2023-04-05T15:45:34.845Z,11.58
2023-04-05T15:50:37.838Z,11.42
2023-04-05T15:55:40.945Z,10.91
2023-04-05T16:00:44.251Z,10.72
2023-04-05T16:05:47.021Z,10.32
2023-04-05T16:10:50.408Z,10.04
2023-04-05T16:15:53.446Z,9.77
2023-04-05T16:20:57.478Z,9.51
2023-04-05T16:26:00.283Z,9.29
2023-04-05T16:31:03.992Z,9.13
2023-04-05T16:36:07.191Z,8.74
2023-04-05T16:41:10.447Z,8.42
2023-04-05T16:46:13.370Z,8.13
2023-04-05T16:51:16.366Z,7.80
2023-04-05T16:56:20.074Z,7.49
2023-04-05T17:01:23.102Z,7.17
2023-04-05T17:06:28.077Z,6.90
2023-04-05T17:11:31.264Z,6.68
2023-04-05T17:16:34.422Z,6.34
2023-04-05T17:21:37.421Z,5.99
2023-04-05T17:26:40.761Z,5.71
2023-04-05T17:31:44.624Z,5.42
2023-04-05T17:36:47.775Z,5.19
2023-04-05T17:41:51.005Z,4.93
2023-04-05T17:47:01.618Z,4.74
2023-04-05T17:52:09.058Z,4.52
2023-04-05T17:57:15.407Z,4.27
2023-04-05T18:02:18.781Z,4.10
2023-04-05T18:07:21.895Z,3.97
2023-04-05T18:12:24.903Z,3.87
2023-04-05T18:17:29.268Z,3.74
2023-04-05T18:22:35.066Z,3.65
2023-04-05T18:27:39.534Z,3.55
2023-04-05T18:32:47.540Z,3.47
2023-04-05T18:37:51.043Z,3.39
2023-04-05T18:42:54.067Z,3.25
2023-04-05T18:47:57.151Z,3.03
2023-04-05T18:53:00.605Z,2.90
2023-04-05T18:58:03.615Z,2.84
2023-04-05T19:03:06.551Z,2.79
2023-04-05T19:08:09.590Z,2.76
2023-04-05T19:13:12.615Z,2.69
2023-04-05T19:18:15.749Z,2.67
2023-04-05T19:23:18.799Z,2.70
2023-04-05T19:28:22.000Z,2.80
2023-04-05T19:33:24.981Z,2.80
2023-04-05T19:38:28.078Z,2.91
2023-04-05T19:43:31.824Z,3.01
2023-04-05T19:48:38.794Z,2.98
2023-04-05T19:53:53.679Z,2.95
2023-04-05T19:59:31.616Z,2.72
2023-04-05T20:04:39.002Z,2.42
2023-04-05T20:09:42.833Z,2.24
2023-04-05T20:14:46.465Z,2.14
2023-04-05T20:19:59.179Z,2.03
2023-04-05T20:25:34.717Z,2.10
2023-04-05T20:30:37.836Z,2.12
2023-04-05T20:35:42.482Z,2.07
2023-04-05T20:40:45.592Z,1.96
2023-04-05T20:45:48.826Z,1.84
2023-04-05T20:50:51.991Z,1.71
2023-04-05T20:55:59.069Z,1.53
2023-04-05T21:01:03.425Z,1.38
2023-04-05T21:06:08.803Z,1.23
2023-04-05T21:11:12.053Z,1.10
2023-04-05T21:16:15.307Z,0.94
2023-04-05T21:21:18.387Z,0.77
2023-04-05T21:26:21.468Z,0.64
2023-04-05T21:31:24.741Z,0.51
2023-04-05T21:36:27.989Z,0.39
2023-04-05T21:41:31.098Z,0.31
2023-04-05T21:46:34.202Z,0.22
2023-04-05T21:51:37.733Z,0.14
2023-04-05T21:56:40.686Z,0.05
2023-04-05T22:01:43.857Z,0.01
2023-04-05T22:06:48.353Z,0.03
2023-04-05T22:11:51.938Z,0.02
2023-04-05T22:16:55.804Z,-0.11
2023-04-05T22:21:58.830Z,-0.22
2023-04-05T22:27:02.768Z,-0.35
2023-04-05T22:32:07.068Z,-0.48
2023-04-05T22:37:11.193Z,-0.63
2023-04-05T22:42:14.270Z,-0.74
2023-04-05T22:47:17.263Z,-0.84
2023-04-05T22:52:20.521Z,-0.91
2023-04-05T22:57:23.497Z,-0.98
2023-04-05T23:02:27.941Z,-1.04
2023-04-05T23:07:31.270Z,-1.09
2023-04-05T23:12:34.217Z,-1.14
2023-04-05T23:17:37.567Z,-1.21
2023-04-05T23:22:40.852Z,-1.25
2023-04-05T23:27:43.682Z,-1.27
2023-04-05T23:32:46.715Z,-1.32
2023-04-05T23:37:49.891Z,-1.40
2023-04-05T23:42:53.008Z,-1.46
2023-04-05T23:47:56.082Z,-1.49
2023-04-05T23:53:00.936Z,-1.51
2023-04-05T23:58:04.067Z,-1.52
